Hopkins, Missouri
Current Conditions -  °F | °C
As of 9:15 PM on Wednesday 22 Oct 2014 (Local Time) from KICL Reporting Station
Few Clouds Few Clouds  
Wind Chill: 63°   Ceiling: Unl
Heat Index: 63°   Visibility: 10mi
Dew Point: 50°   Wind: 7mph
Humidity: 63%   Direction: NA
Pressure: 30.09"   Gusts: 14mph
Location:  40.55°N, 94.82°W
Report Text: KICL 230215Z AUTO VRB06G12KT 10SM FEW060 17/10 A3009 RMK AO2
Loading
Personal Weather Stations






























Interactive Weather Map New forecast layout! Learn more

10-Day Weather Forecast

Advertisements
Track Severe Weather on mobile